Aérodrome :
LOGIN :

S'inscrire | Disclaimer

   EN    FR    IT 

 










Légende :    VFR   VFR Marginal   IFR   IFR Intensif   IFR Très Intensif
Visi : 
Plafond : 
>= 8 km
>= 3000ft
5 à 8 km
1000 à 3000 ft
1500m à 5 km
500 à 1000 ft
800 à 1500m
200 à 500 ft
< 800m
< 200 ft
Symboles :   Orages  Brouillard  Fortes neiges  Fortes précipitations  Vent > 20 kt
SIGMETs :   Divers  Orages  Givrage  Turbulence  Onde Orograph.  Cendres Volcan.







- Altitude de l'aérodrome : 416 ft
- Code IATA : OVD


LEAS - Asturias

DERNIER METAR :
  • 210500Z VRB02KT 9999 FEW028 16/16 Q1019 NOSIG

METARs EXPIRÉS :
  • 210430Z 00000KT 9999 FEW028 16/15 Q1019 NOSIG
  • 210400Z 00000KT 9999 FEW028 16/15 Q1019 NOSIG
  • 210330Z AUTO VRB02KT 5000 BR NSC 16/15 Q1019
  • 210300Z AUTO 13003KT 090V160 5000 BR NSC 18/16 Q1019

TAF TAF LEAS
Valide du 21 à 03h jusqu'au 22 à 03h UTC


210200Z 2103/2203 09009KT 8000 SCT015 TX26/2113Z TN16/2106Z
TEMPO 2103/2108 3000 BR BKN010
PROB40
TEMPO 2103/2107 1500 BCFG BKN005
TEMPO 2103/2108 3000 BR BKN010
PROB40
TEMPO 2121/2203 1500 BCFG BKN005
Pas de NOTAMs connus pour ce terrain.



MET'MAP, la Météo Aéronautique d'un coup d'oeil ! - Copyright ORBIFLY Décembre 2007 - Disclaimer

ORBIFLY MET'MAP TEAM :

Programmation & Développement : Alexandra Zaïnal
Conception & Développement : Baudouin d'Aumeries
Co-Programmation & Développement : Marc-Olivier Méhu
Soutien technique & logistique : Manuel Goepfert

Contact : metmap@orbifly.com




SOURCES & CREDITS :

   NOAA